Time;durP1;ratioP1;P1;durP2;ratioP2;P2;SDS_P1;SDS_P2;PMS_P1;PMS_P2;Temp;Humidity;BMP_temperature;BMP_pressure;BME280_temperature;BME280_humidity;BME280_pressure;Samples;Min_cycle;Max_cycle;Signal;HPM_P1;HPM_P2
2021/08/25 00:01:35;;;;;;;3.45;1.60;;;;;;;21.63;43.08;102311.66;5039535;28;20029;-63
2021/08/25 00:04:00;;;;;;;2.03;1.35;;;;;;;21.58;43.03;102323.06;5057359;28;20103;-63
2021/08/25 00:06:26;;;;;;;3.97;1.77;;;;;;;21.52;43.35;102309.25;5057453;28;20025;-63
2021/08/25 00:08:52;;;;;;;4.32;1.48;;;;;;;21.51;42.74;102307.53;5057174;28;20033;-63
2021/08/25 00:11:17;;;;;;;3.60;1.75;;;;;;;21.49;42.69;102313.16;5039726;28;20032;-63
2021/08/25 00:13:43;;;;;;;2.75;1.60;;;;;;;21.45;43.18;102307.16;5055172;28;20029;-63
2021/08/25 00:16:08;;;;;;;4.60;1.50;;;;;;;21.46;43.06;102314.34;5058047;28;20037;-63
2021/08/25 00:18:33;;;;;;;2.05;1.58;;;;;;;21.44;43.49;102308.16;5056295;28;20059;-62
2021/08/25 00:20:59;;;;;;;2.00;1.52;;;;;;;21.41;43.76;102313.94;5056281;28;20342;-63
2021/08/25 00:23:25;;;;;;;3.15;1.75;;;;;;;21.40;43.31;102309.53;5056947;28;20052;-63
2021/08/25 00:25:53;;;;;;;3.85;1.77;;;;;;;21.38;43.18;102306.09;5057566;28;20478;-62
2021/08/25 00:28:19;;;;;;;2.92;1.75;;;;;;;21.35;43.42;102306.44;5057428;28;20041;-63
2021/08/25 00:30:44;;;;;;;3.30;1.50;;;;;;;21.31;43.21;102299.59;5057223;28;20470;-63
2021/08/25 00:33:10;;;;;;;2.13;1.67;;;;;;;21.27;43.44;102292.75;5057521;28;20078;-62
2021/08/25 00:35:35;;;;;;;7.78;2.92;;;;;;;21.23;43.24;102285.06;5056310;28;20036;-63
2021/08/25 00:38:00;;;;;;;3.80;1.63;;;;;;;21.19;43.43;102283.72;5055972;28;20039;-62
2021/08/25 00:40:26;;;;;;;6.38;1.92;;;;;;;21.14;43.78;102280.59;5039573;28;20363;-63
2021/08/25 00:42:51;;;;;;;3.58;1.80;;;;;;;21.12;43.82;102283.50;5057416;28;20024;-63
2021/08/25 00:45:16;;;;;;;3.45;1.70;;;;;;;21.06;43.92;102278.66;5056997;28;20033;-63
2021/08/25 00:47:42;;;;;;;3.30;2.00;;;;;;;21.05;43.24;102278.81;5057089;28;20396;-63
2021/08/25 00:50:10;;;;;;;2.55;1.70;;;;;;;21.02;43.25;102277.25;5056096;28;20033;-63
2021/08/25 00:52:36;;;;;;;4.88;1.70;;;;;;;20.96;43.64;102275.19;5057298;28;20531;-63
2021/08/25 00:55:02;;;;;;;3.53;1.42;;;;;;;20.95;43.47;102270.75;5056497;28;20061;-63
2021/08/25 00:57:27;;;;;;;2.10;1.50;;;;;;;20.93;44.00;102283.69;5057127;28;20028;-63
2021/08/25 00:59:53;;;;;;;2.08;1.60;;;;;;;20.85;43.96;102264.56;5057086;28;20452;-63
2021/08/25 01:02:28;;;;;;;13.90;1.90;;;;;;;20.86;43.78;102282.59;5056078;28;20050;-63
2021/08/25 01:04:57;;;;;;;4.28;1.75;;;;;;;20.80;43.77;102266.91;5057333;28;20021;-63
2021/08/25 01:07:22;;;;;;;6.05;1.70;;;;;;;20.78;43.84;102275.25;5056945;28;20025;-63
2021/08/25 01:09:49;;;;;;;3.72;1.83;;;;;;;20.80;43.98;102269.63;5056642;28;20116;-63
2021/08/25 01:12:15;;;;;;;2.22;1.55;;;;;;;20.76;43.81;102271.84;5057071;28;20036;-62
2021/08/25 01:14:40;;;;;;;3.45;1.42;;;;;;;20.74;44.20;102278.47;5056791;28;20037;-63
2021/08/25 01:17:06;;;;;;;3.03;1.00;;;;;;;20.72;44.07;102283.19;5057013;28;20150;-62
2021/08/25 01:20:00;;;;;;;2.85;1.65;;;;;;;20.68;43.80;102273.66;5056733;28;20040;-61
2021/08/25 01:22:25;;;;;;;;;;;;;;;20.62;44.10;102269.69;5055768;28;20419;-62
2021/08/25 01:24:52;;;;;;;2.75;1.30;;;;;;;20.58;43.88;102276.47;5057079;28;20001;-62
2021/08/25 01:27:18;;;;;;;3.65;1.92;;;;;;;20.55;44.05;102265.03;5055477;28;20033;-62
2021/08/25 01:29:44;;;;;;;5.82;1.73;;;;;;;20.53;44.43;102267.91;5056522;28;20040;-62
2021/08/25 01:32:10;;;;;;;3.78;1.70;;;;;;;20.48;44.36;102248.50;5055280;28;20095;-62
2021/08/25 01:34:49;;;;;;;5.03;2.25;;;;;;;20.47;44.42;102256.78;5038659;28;20074;-62
2021/08/25 01:37:14;;;;;;;6.93;2.30;;;;;;;20.48;44.41;102255.78;5038976;28;20029;-62
2021/08/25 01:39:40;;;;;;;4.07;2.03;;;;;;;20.46;44.12;102257.84;5056900;28;20029;-62
2021/08/25 01:42:05;;;;;;;3.90;2.40;;;;;;;20.46;44.31;102261.41;5056665;28;20057;-62
2021/08/25 01:44:31;;;;;;;4.68;2.85;;;;;;;20.44;44.56;102257.97;5056331;28;20029;-62
2021/08/25 01:46:56;;;;;;;2.20;1.52;;;;;;;20.44;44.17;102255.25;5056730;28;20033;-62
2021/08/25 01:49:21;;;;;;;5.50;1.63;;;;;;;20.41;44.49;102254.75;5056352;28;20037;-62
2021/08/25 01:51:47;;;;;;;2.53;1.67;;;;;;;20.41;44.53;102254.75;5055875;28;20036;-62
2021/08/25 01:54:12;;;;;;;4.47;2.08;;;;;;;20.36;44.84;102252.47;5055904;28;20032;-62
2021/08/25 01:56:41;;;;;;;4.05;1.98;;;;;;;20.33;43.80;102253.63;5055178;28;20480;-62
2021/08/25 01:59:07;;;;;;;2.22;1.60;;;;;;;20.31;44.58;102252.94;5055037;28;20051;-62
2021/08/25 02:01:33;;;;;;;1.85;1.35;;;;;;;20.28;44.32;102250.53;5056013;28;20029;-62
2021/08/25 02:03:58;;;;;;;2.38;1.73;;;;;;;20.25;44.48;102245.41;5054596;28;20400;-62
2021/08/25 02:06:25;;;;;;;9.43;2.08;;;;;;;20.22;44.94;102240.25;5056449;28;20033;-62
2021/08/25 02:08:50;;;;;;;5.50;2.38;;;;;;;20.21;45.03;102241.25;5055051;28;20519;-62
2021/08/25 02:11:16;;;;;;;4.20;1.85;;;;;;;20.19;44.96;102232.41;5057038;28;20033;-62
2021/08/25 02:13:41;;;;;;;4.45;1.92;;;;;;;20.17;44.50;102231.72;5056341;28;20033;-62
2021/08/25 02:16:06;;;;;;;1.65;1.30;;;;;;;20.16;44.88;102234.56;5057022;28;20466;-62
2021/08/25 02:18:32;;;;;;;4.65;2.03;;;;;;;20.15;45.02;102233.75;5056224;28;20067;-62
2021/08/25 02:20:58;;;;;;;5.18;1.65;;;;;;;20.13;44.79;102229.44;5055872;28;20028;-62
2021/08/25 02:23:23;;;;;;;5.90;2.40;;;;;;;20.12;44.73;102230.47;5054920;28;20025;-62
2021/08/25 02:25:48;;;;;;;3.28;2.08;;;;;;;20.06;45.36;102226.50;5055231;28;20440;-62
2021/08/25 02:28:14;;;;;;;4.22;1.85;;;;;;;20.06;44.99;102231.94;5056333;28;20025;-62
2021/08/25 02:30:40;;;;;;;3.53;1.85;;;;;;;20.04;45.62;102228.53;5056365;28;20033;-62
2021/08/25 02:33:07;;;;;;;3.75;1.83;;;;;;;20.00;45.11;102221.69;5055640;28;20025;-62
2021/08/25 02:35:32;;;;;;;3.75;1.83;;;;;;;19.99;45.04;102217.25;5055196;28;20017;-62
2021/08/25 02:37:58;;;;;;;4.82;2.28;;;;;;;19.92;45.30;102216.19;5055903;28;20039;-62
2021/08/25 02:40:23;;;;;;;2.15;1.20;;;;;;;19.93;45.10;102211.59;5055888;28;20047;-62
2021/08/25 02:42:49;;;;;;;1.40;1.30;;;;;;;19.91;45.32;102222.63;5055986;28;20029;-62
2021/08/25 02:45:14;;;;;;;1.83;1.55;;;;;;;19.87;45.12;102218.53;5055246;28;20033;-62
2021/08/25 02:47:40;;;;;;;2.33;1.40;;;;;;;19.86;45.33;102214.06;5055663;28;20028;-62
2021/08/25 02:50:07;;;;;;;2.78;1.75;;;;;;;19.84;45.19;102210.66;5055367;28;20029;-62
2021/08/25 02:52:32;;;;;;;3.03;1.80;;;;;;;19.82;44.81;102209.94;5055490;28;20473;-62
2021/08/25 02:54:58;;;;;;;2.97;2.03;;;;;;;19.82;45.16;102207.22;5054179;28;20124;-62
2021/08/25 02:57:23;;;;;;;3.78;1.88;;;;;;;19.81;45.32;102201.97;5055822;28;20041;-62
2021/08/25 02:59:48;;;;;;;3.25;1.95;;;;;;;19.78;44.91;102200.41;5055244;28;20072;-62
2021/08/25 03:02:14;;;;;;;2.40;1.60;;;;;;;19.76;45.04;102199.72;5055200;28;20079;-62
2021/08/25 03:04:39;;;;;;;2.95;1.60;;;;;;;19.74;44.99;102196.28;5054391;28;20469;-62
2021/08/25 03:07:04;;;;;;;4.38;1.75;;;;;;;19.71;45.39;102199.31;5056237;28;20386;-62
2021/08/25 03:09:30;;;;;;;3.42;1.88;;;;;;;19.68;44.96;102183.31;5055618;28;20025;-62
2021/08/25 03:11:55;;;;;;;3.95;1.77;;;;;;;19.66;45.53;102199.78;5055387;28;20124;-62
2021/08/25 03:14:20;;;;;;;2.30;2.10;;;;;;;19.64;45.66;102201.81;5055062;28;20037;-62
2021/08/25 03:16:46;;;;;;;1.85;1.30;;;;;;;19.65;45.60;102197.22;5055514;28;20116;-62
2021/08/25 03:19:11;;;;;;;2.17;1.33;;;;;;;19.61;45.08;102196.66;5053791;28;20500;-62
2021/08/25 03:21:40;;;;;;;1.35;1.13;;;;;;;19.57;45.13;102197.16;5055508;28;20476;-62
2021/08/25 03:24:06;;;;;;;5.57;1.85;;;;;;;19.56;45.53;102193.56;5054247;28;20031;-62
2021/08/25 03:26:31;;;;;;;2.85;1.42;;;;;;;19.55;45.72;102196.41;5053541;28;20100;-62
2021/08/25 03:28:56;;;;;;;2.75;1.15;;;;;;;19.53;45.19;102195.72;5037191;28;20029;-62
2021/08/25 03:31:22;;;;;;;1.10;1.00;;;;;;;19.33;45.74;102164.22;5054066;28;20031;-62
2021/08/25 03:33:47;;;;;;;2.47;1.50;;;;;;;19.48;45.40;102187.19;5055331;28;20060;-62
2021/08/25 03:36:12;;;;;;;2.15;1.50;;;;;;;19.48;46.17;102189.91;5053833;28;20443;-62
2021/08/25 03:38:38;;;;;;;4.03;1.55;;;;;;;19.46;45.34;102192.75;5054848;28;20035;-62
2021/08/25 03:41:03;;;;;;;1.75;1.38;;;;;;;19.45;45.57;102190.22;5055371;28;20036;-62
2021/08/25 03:43:28;;;;;;;2.80;1.95;;;;;;;19.43;45.59;102186.81;5054024;28;20033;-62
2021/08/25 03:45:54;;;;;;;3.72;1.92;;;;;;;19.41;46.05;102184.22;5055070;28;20418;-62
2021/08/25 03:48:19;;;;;;;4.40;1.75;;;;;;;19.40;45.78;102181.66;5055519;28;20393;-62
2021/08/25 03:50:44;;;;;;;2.08;1.80;;;;;;;19.37;45.40;102174.66;5058366;28;20057;-62
2021/08/25 03:53:10;;;;;;;2.40;1.40;;;;;;;19.38;46.17;102176.38;5058686;28;20033;-62
2021/08/25 03:55:35;;;;;;;2.30;1.00;;;;;;;19.36;45.57;102174.78;5059173;28;20113;-62
2021/08/25 03:58:01;;;;;;;2.60;1.75;;;;;;;19.32;45.89;102176.94;5058732;28;20060;-62
2021/08/25 04:00:26;;;;;;;2.25;1.27;;;;;;;19.31;45.91;102177.13;5057521;28;20045;-62
2021/08/25 04:02:51;;;;;;;4.50;1.40;;;;;;;19.29;45.72;102173.69;5058130;28;20060;-62
2021/08/25 04:05:17;;;;;;;2.15;1.30;;;;;;;19.26;45.25;102174.00;5058407;28;20025;-62
2021/08/25 04:07:42;;;;;;;1.85;1.40;;;;;;;19.24;45.78;102178.72;5056676;28;20033;-62
2021/08/25 04:10:08;;;;;;;1.50;1.10;;;;;;;19.21;45.77;102174.44;5056620;28;20059;-62
2021/08/25 04:12:33;;;;;;;2.28;1.42;;;;;;;19.19;45.70;102180.03;5058045;28;20029;-62
2021/08/25 04:14:58;;;;;;;3.28;1.50;;;;;;;19.18;45.86;102174.75;5057514;28;20028;-62
2021/08/25 04:17:24;;;;;;;4.13;2.08;;;;;;;19.15;46.07;102184.06;5057669;28;20028;-62
2021/08/25 04:19:49;;;;;;;2.45;1.73;;;;;;;19.13;46.10;102177.06;5057572;28;20021;-62
2021/08/25 04:22:15;;;;;;;4.55;2.22;;;;;;;19.12;46.44;102181.63;5057530;28;20430;-62
2021/08/25 04:24:40;;;;;;;2.60;2.15;;;;;;;19.11;46.14;102177.22;5057589;28;20032;-62
2021/08/25 04:27:05;;;;;;;3.78;1.73;;;;;;;19.11;46.03;102171.81;5057645;28;20041;-62
2021/08/25 04:29:31;;;;;;;2.97;1.98;;;;;;;19.11;45.39;102182.66;5057469;28;20052;-62
2021/08/25 04:31:56;;;;;;;2.25;1.60;;;;;;;19.09;46.50;102181.97;5056593;28;20366;-62
2021/08/25 04:34:22;;;;;;;2.60;1.20;;;;;;;19.06;45.64;102174.13;5055370;28;20021;-62
2021/08/25 04:36:47;;;;;;;3.35;1.85;;;;;;;19.06;46.08;102173.25;5055693;28;20482;-62
2021/08/25 04:39:12;;;;;;;3.83;1.95;;;;;;;19.04;45.60;102170.69;5056911;28;20033;-62
2021/08/25 04:41:38;;;;;;;2.53;1.70;;;;;;;19.04;45.95;102170.69;5057010;28;20112;-62
2021/08/25 04:44:05;;;;;;;5.03;1.88;;;;;;;19.04;45.77;102165.25;5056971;28;20539;-62
2021/08/25 04:46:30;;;;;;;5.30;1.70;;;;;;;19.04;46.21;102172.53;5056801;28;20111;-62
2021/08/25 04:48:55;;;;;;;2.33;1.65;;;;;;;19.04;46.17;102164.38;5057251;28;20068;-62
2021/08/25 04:51:21;;;;;;;3.38;2.20;;;;;;;19.04;46.53;102164.38;5056862;28;20060;-62
2021/08/25 04:53:46;;;;;;;3.78;2.40;;;;;;;19.05;45.57;102166.97;5056746;28;20068;-62
2021/08/25 04:56:12;;;;;;;5.22;1.95;;;;;;;19.05;46.41;102166.97;5056514;28;20047;-62
2021/08/25 04:58:37;;;;;;;4.75;2.38;;;;;;;19.06;45.56;102163.25;5055397;28;20036;-62
2021/08/25 05:01:06;;;;;;;5.60;2.65;;;;;;;19.05;45.89;102166.09;5054839;28;20103;-62
2021/08/25 05:03:31;;;;;;;7.05;2.25;;;;;;;19.07;46.32;102164.94;5039107;28;20036;-62
2021/08/25 05:05:57;;;;;;;3.15;2.10;;;;;;;19.08;45.57;102160.38;5055341;28;20366;-62
2021/08/25 05:08:23;;;;;;;4.72;2.38;;;;;;;19.07;46.23;102158.66;5056626;28;20033;-62
2021/08/25 05:10:49;;;;;;;5.35;1.98;;;;;;;19.09;46.12;102156.66;5056760;28;20032;-62
2021/08/25 05:13:15;;;;;;;5.15;2.63;;;;;;;19.12;45.94;102162.63;5054922;28;20040;-62
2021/08/25 05:15:45;;;;;;;3.90;2.20;;;;;;;19.17;46.14;102156.75;5055760;28;20029;-62
2021/08/25 05:18:10;;;;;;;4.60;2.40;;;;;;;19.21;45.74;102163.56;5054734;28;20495;-62
2021/08/25 05:20:35;;;;;;;4.95;2.42;;;;;;;19.29;45.91;102169.09;5054912;28;20025;-62
2021/08/25 05:23:01;;;;;;;4.07;1.90;;;;;;;19.36;46.11;102163.91;5056192;28;20104;-62
2021/08/25 05:25:26;;;;;;;7.63;2.83;;;;;;;19.45;46.09;102165.75;5056211;28;20033;-62
2021/08/25 05:27:52;;;;;;;4.05;2.60;;;;;;;19.54;46.35;102162.94;5056731;28;20032;-62
2021/08/25 05:30:17;;;;;;;4.00;2.65;;;;;;;19.65;45.81;102160.00;5056715;28;20057;-62
2021/08/25 05:32:43;;;;;;;3.75;2.50;;;;;;;19.74;45.84;102160.94;5055927;28;20036;-62
2021/08/25 05:35:09;;;;;;;3.97;2.30;;;;;;;19.83;46.30;102157.28;5057006;28;20469;-62
2021/08/25 05:37:34;;;;;;;6.47;2.38;;;;;;;19.95;45.96;102156.03;5056664;28;20028;-62
2021/08/25 05:40:00;;;;;;;6.43;3.28;;;;;;;20.04;45.86;102160.53;5054878;28;20039;-62
2021/08/25 05:42:25;;;;;;;4.32;2.60;;;;;;;20.21;45.89;102156.06;5054969;28;20033;-62
2021/08/25 05:44:50;;;;;;;3.53;2.65;;;;;;;20.32;46.02;102164.81;5056144;28;20449;-62
2021/08/25 05:47:16;;;;;;;3.45;2.45;;;;;;;20.46;46.13;102165.28;5056068;28;20033;-62
2021/08/25 05:49:41;;;;;;;4.68;2.47;;;;;;;20.59;45.34;102171.13;5056669;28;20024;-62
2021/08/25 05:52:07;;;;;;;5.05;2.50;;;;;;;20.75;45.87;102168.47;5056000;28;20057;-62
2021/08/25 05:54:32;;;;;;;3.08;2.13;;;;;;;20.92;45.59;102171.13;5055589;28;20037;-62
2021/08/25 05:56:57;;;;;;;6.85;3.03;;;;;;;21.09;45.14;102163.91;5055935;28;20083;-62
2021/08/25 05:59:23;;;;;;;6.25;3.03;;;;;;;21.31;45.45;102174.19;5055411;28;20053;-62
2021/08/25 06:01:48;;;;;;;5.82;2.65;;;;;;;21.51;44.42;102176.63;5054565;28;20150;-62
2021/08/25 06:04:13;;;;;;;5.47;2.53;;;;;;;21.62;44.88;102154.47;5054410;28;20042;-62
2021/08/25 06:06:39;;;;;;;6.70;3.20;;;;;;;21.87;44.70;102169.88;5053635;28;20097;-63
2021/08/25 06:09:04;;;;;;;6.80;2.38;;;;;;;22.11;44.98;102177.22;5054234;28;20028;-63
2021/08/25 06:11:30;;;;;;;6.38;2.70;;;;;;;22.32;44.52;102172.94;5036014;28;20091;-64
2021/08/25 06:13:55;;;;;;;4.75;2.55;;;;;;;22.52;44.23;102162.50;5054102;28;20037;-63
2021/08/25 06:16:20;;;;;;;7.10;2.92;;;;;;;22.71;44.13;102169.47;5054143;28;20029;-63
2021/08/25 06:18:46;;;;;;;7.40;3.08;;;;;;;22.84;44.41;102154.22;5052817;28;20025;-63
2021/08/25 06:21:16;;;;;;;5.40;2.50;;;;;;;23.06;43.98;102164.34;5052768;28;20492;-62
2021/08/25 06:23:41;;;;;;;5.60;3.20;;;;;;;23.23;44.38;102161.56;5052545;28;20025;-63
2021/08/25 06:26:06;;;;;;;8.32;3.40;;;;;;;23.40;43.51;102166.78;5054688;28;20389;-63
2021/08/25 06:28:32;;;;;;;8.25;2.85;;;;;;;23.58;43.32;102152.81;5053445;28;20154;-63
2021/08/25 06:30:57;;;;;;;6.70;3.25;;;;;;;23.73;43.04;102156.44;5054744;28;20033;-63
2021/08/25 06:33:22;;;;;;;8.13;3.38;;;;;;;23.87;43.14;102158.41;5054357;28;20108;-63
2021/08/25 06:35:48;;;;;;;6.10;3.38;;;;;;;23.95;43.25;102160.22;5054526;28;20036;-64
2021/08/25 06:38:13;;;;;;;8.15;3.50;;;;;;;24.04;42.70;102154.47;5053593;28;20520;-63
2021/08/25 06:40:38;;;;;;;8.98;3.50;;;;;;;24.17;43.57;102159.38;5053368;28;20389;-64
2021/08/25 06:43:04;;;;;;;5.28;3.22;;;;;;;24.24;42.56;102161.19;5053669;28;20118;-63
2021/08/25 06:45:29;;;;;;;5.65;3.30;;;;;;;24.27;43.30;102159.94;5055278;28;20025;-63
2021/08/25 06:47:54;;;;;;;10.63;3.25;;;;;;;24.29;43.29;102152.41;5053897;28;20039;-63
2021/08/25 06:50:20;;;;;;;6.18;2.97;;;;;;;24.33;42.47;102153.75;5054897;28;20028;-63
2021/08/25 06:52:45;;;;;;;7.85;3.55;;;;;;;24.50;42.73;102158.00;5054698;28;20416;-63
2021/08/25 06:55:10;;;;;;;7.57;3.70;;;;;;;24.67;42.62;102156.78;5053865;28;20361;-63
2021/08/25 06:57:37;;;;;;;9.13;4.03;;;;;;;24.79;42.68;102155.28;5054934;28;20041;-63
2021/08/25 07:00:04;;;;;;;8.90;4.28;;;;;;;24.94;42.29;102149.81;5054635;28;20417;-63
2021/08/25 07:02:29;;;;;;;7.13;3.95;;;;;;;25.05;41.74;102143.81;5054196;28;20040;-62
2021/08/25 07:04:55;;;;;;;8.90;4.25;;;;;;;25.20;41.97;102152.03;5055067;28;20033;-63
2021/08/25 07:07:20;;;;;;;5.13;3.17;;;;;;;25.35;41.38;102144.59;5054558;28;20029;-63
2021/08/25 07:09:46;;;;;;;10.63;3.65;;;;;;;25.49;41.42;102151.13;5054408;28;20032;-63
2021/08/25 07:12:11;;;;;;;5.63;3.35;;;;;;;25.68;41.24;102151.34;5054415;28;20029;-63
2021/08/25 07:14:36;;;;;;;9.35;4.90;;;;;;;25.90;41.26;102150.28;5054255;28;20111;-63
2021/08/25 07:17:02;;;;;;;8.88;3.92;;;;;;;26.10;41.21;102153.22;5053938;28;20420;-63
2021/08/25 07:19:27;;;;;;;8.07;3.88;;;;;;;26.27;40.92;102149.13;5052752;28;20454;-61
2021/08/25 07:21:53;;;;;;;5.32;3.38;;;;;;;26.41;40.91;102158.34;5052990;28;20389;-61
2021/08/25 07:24:19;;;;;;;11.73;3.40;;;;;;;26.45;40.82;102156.88;5058441;28;20029;-61
2021/08/25 07:26:45;;;;;;;13.45;4.10;;;;;;;26.66;40.71;102155.97;5058395;28;20063;-61
2021/08/25 07:29:10;;;;;;;5.55;3.42;;;;;;;26.84;40.19;102148.91;5058172;28;20053;-61
2021/08/25 07:31:35;;;;;;;7.43;3.85;;;;;;;27.05;40.24;102143.28;5057917;28;20040;-61
2021/08/25 07:34:01;;;;;;;8.82;3.85;;;;;;;27.11;39.67;102147.97;5057439;28;20065;-62
2021/08/25 07:36:27;;;;;;;7.70;3.55;;;;;;;27.36;39.28;102152.94;5057960;28;20025;-61
2021/08/25 07:38:52;;;;;;;7.18;3.88;;;;;;;27.56;39.38;102140.06;5057362;28;20040;-62
2021/08/25 07:41:18;;;;;;;8.05;3.78;;;;;;;27.70;39.23;102133.53;5057226;28;20025;-62
2021/08/25 07:43:43;;;;;;;6.90;3.35;;;;;;;27.94;38.44;102149.47;5056121;28;20017;-60
2021/08/25 07:46:09;;;;;;;7.68;4.40;;;;;;;28.16;38.55;102144.63;5055507;28;20029;-60
2021/08/25 07:48:34;;;;;;;10.48;3.40;;;;;;;28.38;38.26;102150.75;5055552;28;20122;-61
2021/08/25 07:51:01;;;;;;;7.40;3.35;;;;;;;28.58;38.84;102140.53;5057078;28;20064;-61
2021/08/25 07:53:27;;;;;;;8.20;3.47;;;;;;;28.78;37.31;102138.59;5057002;28;20075;-61
2021/08/25 07:55:52;;;;;;;4.93;2.92;;;;;;;28.98;37.51;102139.34;5057141;28;20024;-62
2021/08/25 07:58:17;;;;;;;7.63;3.13;;;;;;;29.19;38.00;102136.31;5057652;28;20035;-61
2021/08/25 08:00:43;;;;;;;4.30;2.72;;;;;;;29.39;37.18;102142.59;5055585;28;20080;-61
2021/08/25 08:03:08;;;;;;;8.43;3.28;;;;;;;29.60;36.93;102135.03;5057178;28;20044;-61
2021/08/25 08:05:34;;;;;;;6.53;2.95;;;;;;;29.78;36.36;102140.66;5055423;28;20036;-61
2021/08/25 08:07:59;;;;;;;6.45;2.92;;;;;;;29.89;35.99;102142.72;5056572;28;20469;-61
2021/08/25 08:10:24;;;;;;;10.88;2.65;;;;;;;30.00;36.80;102131.78;5054766;28;20123;-62
2021/08/25 08:12:50;;;;;;;5.57;3.10;;;;;;;30.15;36.04;102134.19;5056192;28;20473;-62
2021/08/25 08:15:16;;;;;;;6.20;2.55;;;;;;;30.27;35.61;102128.75;5056588;28;20049;-61
2021/08/25 08:17:45;;;;;;;5.00;2.78;;;;;;;30.38;35.88;102120.59;5054597;28;20452;-60
2021/08/25 08:20:13;;;;;;;7.53;2.75;;;;;;;30.56;35.69;102123.41;5055840;28;20036;-61
2021/08/25 08:22:38;;;;;;;9.68;3.40;;;;;;;30.78;35.55;102120.16;5056047;28;20033;-60
2021/08/25 08:25:04;;;;;;;6.60;2.88;;;;;;;30.97;35.46;102119.94;5056071;28;20025;-61
2021/08/25 08:27:30;;;;;;;8.38;2.97;;;;;;;31.14;35.14;102128.47;5055674;28;20087;-61
2021/08/25 08:29:56;;;;;;;8.60;3.08;;;;;;;31.24;35.09;102119.59;5055997;28;20095;-61
2021/08/25 08:32:21;;;;;;;6.40;2.97;;;;;;;31.41;34.69;102120.66;5054469;28;20025;-61
2021/08/25 08:34:47;;;;;;;4.00;2.35;;;;;;;31.52;34.34;102117.91;5054954;28;20462;-61
2021/08/25 08:37:12;;;;;;;5.45;2.63;;;;;;;31.66;34.06;102132.41;5055678;28;20036;-61
2021/08/25 08:39:37;;;;;;;4.18;2.72;;;;;;;31.82;34.20;102130.91;5055472;28;20040;-62
2021/08/25 08:42:04;;;;;;;5.75;3.03;;;;;;;31.95;33.81;102127.91;5055715;28;20112;-61
2021/08/25 08:44:29;;;;;;;5.80;2.08;;;;;;;32.10;33.44;102136.66;5054236;28;20090;-61
2021/08/25 08:46:55;;;;;;;3.10;2.25;;;;;;;32.17;33.73;102121.56;5054703;28;20032;-61
2021/08/25 08:49:21;;;;;;;7.63;2.60;;;;;;;32.26;33.45;102119.28;5054603;28;20025;-62
2021/08/25 08:51:47;;;;;;;5.30;2.42;;;;;;;32.39;32.75;102124.56;5055496;28;20029;-62
2021/08/25 08:54:12;;;;;;;4.50;2.70;;;;;;;32.54;32.81;102116.66;5054257;28;20159;-61
2021/08/25 08:56:38;;;;;;;4.53;2.30;;;;;;;32.71;32.28;102111.19;5054033;28;20108;-62
2021/08/25 08:59:03;;;;;;;4.82;2.38;;;;;;;32.78;32.92;102098.00;5054761;28;20374;-61
2021/08/25 09:01:30;;;;;;;3.40;1.90;;;;;;;32.62;32.45;102102.38;5055165;28;20154;-62
2021/08/25 09:03:55;;;;;;;3.95;2.03;;;;;;;32.76;31.58;102103.81;5055404;28;20036;-61
2021/08/25 09:06:20;;;;;;;4.38;2.17;;;;;;;32.96;32.06;102108.09;5055348;28;20037;-61
2021/08/25 09:08:46;;;;;;;5.32;2.42;;;;;;;33.15;31.02;102104.06;5055011;28;20469;-61
2021/08/25 09:11:12;;;;;;;3.67;1.90;;;;;;;33.35;31.32;102104.47;5055206;28;20024;-61
2021/08/25 09:13:39;;;;;;;4.55;2.13;;;;;;;33.48;31.35;102106.06;5055230;28;20422;-62
2021/08/25 09:16:05;;;;;;;4.82;1.98;;;;;;;33.59;30.53;102094.06;5055170;28;20021;-61
2021/08/25 09:18:31;;;;;;;9.88;2.60;;;;;;;33.74;30.61;102100.78;5055233;28;20043;-62
2021/08/25 09:20:56;;;;;;;4.32;2.33;;;;;;;33.88;31.40;102102.13;5053798;28;20410;-62
2021/08/25 09:23:24;;;;;;;4.30;2.08;;;;;;;34.02;31.00;102107.34;5054916;28;20028;-61
2021/08/25 09:25:59;;;;;;;4.85;2.00;;;;;;;34.17;30.37;102110.41;5054804;28;20048;-61
2021/08/25 09:28:30;;;;;;;8.48;2.35;;;;;;;34.27;30.68;102107.75;5053778;28;20086;-62
2021/08/25 09:31:07;;;;;;;4.50;2.20;;;;;;;34.37;30.34;102105.13;5055283;28;20079;-62
2021/08/25 09:33:35;;;;;;;3.55;2.60;;;;;;;34.52;30.36;102113.69;5053533;28;20045;-61
2021/08/25 09:36:03;;;;;;;5.55;2.13;;;;;;;34.62;29.54;102093.56;5054531;28;20108;-62
2021/08/25 09:38:31;;;;;;;6.05;2.08;;;;;;;34.73;29.40;102107.31;5053762;28;20048;-61
2021/08/25 09:41:07;;;;;;;5.60;2.63;;;;;;;34.80;29.81;102093.22;5054798;28;20027;-61
2021/08/25 09:43:37;;;;;;;4.40;2.33;;;;;;;34.95;29.16;102091.44;5053190;28;20430;-61
2021/08/25 09:46:07;;;;;;;4.50;2.55;;;;;;;35.11;28.70;102084.16;5054772;28;20028;-61
2021/08/25 09:48:38;;;;;;;7.90;2.47;;;;;;;35.37;28.61;102082.47;5054339;28;20055;-62
2021/08/25 09:51:04;;;;;;;4.72;2.03;;;;;;;35.79;28.16;102083.47;5054348;28;20131;-61
2021/08/25 09:53:30;;;;;;;6.55;3.30;;;;;;;36.36;28.37;102068.78;5053981;28;20099;-61
2021/08/25 09:55:55;;;;;;;7.88;2.92;;;;;;;37.12;27.64;102070.84;5054374;28;20025;-61
2021/08/25 09:58:23;;;;;;;4.97;2.80;;;;;;;38.47;26.57;102067.50;5054736;28;20376;-62
2021/08/25 10:00:48;;;;;;;7.13;2.83;;;;;;;40.43;24.33;102077.31;5052758;28;20056;-61
2021/08/25 10:03:14;;;;;;;6.30;2.60;;;;;;;40.26;24.20;102071.34;5052906;28;20032;-61
2021/08/25 10:05:39;;;;;;;6.07;3.47;;;;;;;39.56;24.92;102065.22;5054326;28;20380;-61
2021/08/25 10:08:05;;;;;;;3.60;2.08;;;;;;;39.17;25.74;102067.16;5054118;28;20078;-61
2021/08/25 10:10:30;;;;;;;5.18;2.80;;;;;;;38.93;25.02;102066.19;5054141;28;20100;-62
2021/08/25 10:12:56;;;;;;;5.75;3.95;;;;;;;38.88;24.58;102066.22;5052533;28;20036;-62
2021/08/25 10:15:31;;;;;;;4.05;2.20;;;;;;;38.93;24.88;102067.03;5053771;28;20099;-61
2021/08/25 10:17:57;;;;;;;3.95;2.10;;;;;;;39.02;25.43;102064.47;5054173;28;20104;-61
2021/08/25 10:20:23;;;;;;;7.82;2.40;;;;;;;39.20;23.99;102062.97;5054067;28;20040;-61
2021/08/25 10:22:48;;;;;;;4.32;1.92;;;;;;;39.36;24.65;102056.97;5054041;28;20431;-62
2021/08/25 10:25:14;;;;;;;3.33;1.85;;;;;;;39.55;23.88;102055.16;5053367;28;20032;-62
2021/08/25 10:27:59;;;;;;;3.67;2.63;;;;;;;39.79;24.46;102051.56;5054141;28;20082;-62
2021/08/25 10:30:24;;;;;;;4.15;2.00;;;;;;;40.03;24.25;102058.09;5053720;28;20090;-62
2021/08/25 10:32:52;;;;;;;5.80;2.65;;;;;;;40.23;23.38;102043.03;5054034;28;20028;-63
2021/08/25 10:35:22;;;;;;;4.07;2.40;;;;;;;40.40;22.93;102035.78;5053719;28;20032;-62
2021/08/25 10:37:49;;;;;;;3.38;2.10;;;;;;;40.58;23.02;102042.59;5054151;28;20044;-61
2021/08/25 10:40:16;;;;;;;4.75;2.30;;;;;;;40.66;23.09;102034.34;5052924;28;20377;-62
2021/08/25 10:42:45;;;;;;;4.07;2.30;;;;;;;40.74;23.06;102029.16;5054343;28;20021;-62
2021/08/25 10:45:11;;;;;;;4.25;2.15;;;;;;;40.81;22.64;102027.69;5054065;28;20017;-62
2021/08/25 10:47:59;;;;;;;9.05;2.58;;;;;;;41.01;22.56;102023.78;5052383;28;20025;-61
2021/08/25 10:50:51;;;;;;;2.53;1.85;;;;;;;41.10;22.44;102021.91;5053296;28;20025;-61
2021/08/25 10:53:29;;;;;;;4.18;2.17;;;;;;;41.19;22.46;102022.91;5053475;28;20395;-61
2021/08/25 10:56:15;;;;;;;3.00;1.75;;;;;;;41.36;22.03;102014.78;5053284;28;20024;-62
2021/08/25 10:58:54;;;;;;;3.38;2.00;;;;;;;41.55;21.93;102009.94;5056577;28;20024;-61
2021/08/25 11:01:31;;;;;;;2.85;1.90;;;;;;;41.69;21.92;102010.81;5057207;28;20033;-62
2021/08/25 11:03:58;;;;;;;3.85;2.05;;;;;;;41.78;21.80;102006.19;5056421;28;20393;-62
2021/08/25 11:06:31;;;;;;;4.78;2.38;;;;;;;41.91;21.91;102007.31;5056658;28;20100;-62
2021/08/25 11:09:22;;;;;;;5.55;2.38;;;;;;;41.97;21.72;102008.06;5056273;28;20033;-61
2021/08/25 11:12:11;;;;;;;2.67;2.13;;;;;;;41.96;21.78;102001.63;5055910;28;20013;-62
2021/08/25 11:14:44;;;;;;;4.07;2.10;;;;;;;41.72;21.73;101989.66;5048003;28;20044;-61
2021/08/25 11:17:21;;;;;;;5.20;2.45;;;;;;;41.94;21.49;101986.16;5056057;28;20036;-61
2021/08/25 11:19:48;;;;;;;3.83;2.40;;;;;;;41.95;21.33;101983.03;5057621;28;20059;-62
2021/08/25 11:22:17;;;;;;;2.83;1.95;;;;;;;41.77;21.33;101976.34;5057189;28;20021;-61